Time;durP1;ratioP1;P1;durP2;ratioP2;P2;SDS_P1;SDS_P2;PMS_P1;PMS_P2;Temp;Humidity;BMP_temperature;BMP_pressure;BME280_temperature;BME280_humidity;BME280_pressure;Samples;Min_cycle;Max_cycle;Signal;HPM_P1;HPM_P2
2023/10/14 00:02:24;;;;;;;9.80;2.05;;;12.10;99.90;;;;;;5036867;28;20128;-79
2023/10/14 00:04:53;;;;;;;9.75;1.63;;;12.00;99.90;;;;;;5054454;28;20045;-79
2023/10/14 00:07:20;;;;;;;11.25;2.08;;;12.00;99.90;;;;;;5036982;28;20056;-79
2023/10/14 00:09:50;;;;;;;8.85;1.83;;;12.20;99.90;;;;;;5036276;28;20053;-78
2023/10/14 00:12:15;;;;;;;8.57;1.85;;;11.90;99.90;;;;;;5054790;28;20091;-78
2023/10/14 00:14:42;;;;;;;12.25;2.00;;;11.90;99.90;;;;;;5036192;28;20037;-78
2023/10/14 00:17:14;;;;;;;6.63;1.92;;;12.30;99.90;;;;;;5035975;28;20438;-78
2023/10/14 00:19:40;;;;;;;9.30;1.80;;;11.90;99.90;;;;;;5036880;28;20467;-79
2023/10/14 00:22:07;;;;;;;9.65;1.92;;;11.80;99.90;;;;;;5053991;28;20112;-78
2023/10/14 00:24:33;;;;;;;9.60;2.28;;;11.80;99.90;;;;;;5052170;28;20059;-79
2023/10/14 00:26:59;;;;;;;9.38;1.92;;;11.90;99.90;;;;;;5036165;28;20128;-79
2023/10/14 00:29:29;;;;;;;6.78;1.92;;;11.70;99.90;;;;;;5036647;28;20052;-79
2023/10/14 00:31:54;;;;;;;12.70;2.05;;;11.70;99.90;;;;;;5035652;28;20053;-78
2023/10/14 00:34:22;;;;;;;11.02;1.98;;;11.80;99.90;;;;;;5039086;28;20391;-78
2023/10/14 00:36:49;;;;;;;9.75;1.88;;;11.60;99.90;;;;;;5037253;28;20056;-78
2023/10/14 00:39:17;;;;;;;9.75;1.60;;;11.40;99.90;;;;;;5035899;28;20123;-78
2023/10/14 00:41:45;;;;;;;11.73;2.28;;;11.40;99.90;;;;;;5054396;28;20041;-78
2023/10/14 00:44:11;;;;;;;8.35;1.83;;;11.50;99.90;;;;;;5035763;28;20129;-79
2023/10/14 00:46:42;;;;;;;8.48;1.95;;;11.50;99.90;;;;;;5053213;28;20111;-78
2023/10/14 00:49:10;;;;;;;11.23;2.22;;;11.60;99.90;;;;;;5035650;28;20098;-78
2023/10/14 00:51:43;;;;;;;14.02;2.10;;;11.60;99.90;;;;;;5035668;28;20086;-78
2023/10/14 00:54:18;;;;;;;12.00;2.15;;;11.60;99.90;;;;;;5035986;28;20045;-78
2023/10/14 00:56:45;;;;;;;11.68;1.80;;;11.70;99.90;;;;;;5036105;28;20094;-78
2023/10/14 00:59:15;;;;;;;9.00;2.45;;;11.90;99.90;;;;;;5035095;28;20049;-78
2023/10/14 01:01:55;;;;;;;10.73;2.10;;;13.10;99.90;;;;;;5053738;28;20052;-78
2023/10/14 01:04:27;;;;;;;9.05;2.00;;;12.10;99.90;;;;;;5036114;28;20083;-78
2023/10/14 01:07:04;;;;;;;11.38;2.20;;;12.10;99.90;;;;;;5034876;28;20041;-78
2023/10/14 01:10:14;;;;;;;10.23;1.98;;;12.10;99.90;;;;;;5053454;28;20044;-78
2023/10/14 01:12:27;;;;;;;10.30;1.90;;;12.00;99.90;;;;;;5042622;28;20045;-79
2023/10/14 01:14:57;;;;;;;15.10;2.10;;;12.00;99.90;;;;;;5052076;28;20060;-78
2023/10/14 01:17:29;;;;;;;10.57;1.85;;;12.00;99.90;;;;;;5035659;28;20087;-78
2023/10/14 01:20:00;;;;;;;7.55;1.80;;;12.00;99.90;;;;;;5034476;28;20481;-78
2023/10/14 01:22:27;;;;;;;8.27;1.60;;;11.90;99.90;;;;;;5035784;28;20431;-79
2023/10/14 01:24:55;;;;;;;12.00;2.00;;;11.90;99.90;;;;;;5052134;28;20052;-79
2023/10/14 01:27:34;;;;;;;10.98;2.20;;;11.90;99.90;;;;;;5052729;28;20041;-79
2023/10/14 01:29:59;;;;;;;9.57;2.13;;;11.80;99.90;;;;;;5035373;28;20064;-79
2023/10/14 01:35:31;;;;;;;9.68;2.10;;;11.90;99.90;;;;;;5034268;28;20400;-79
2023/10/14 01:37:52;;;;;;;9.80;1.80;;;11.70;99.90;;;;;;5051987;28;20052;-79
2023/10/14 01:42:58;;;;;;;9.43;2.38;;;11.80;99.90;;;;;;5034176;28;20049;-79
2023/10/14 01:45:28;;;;;;;9.68;1.70;;;12.00;99.90;;;;;;5052512;28;20480;-79
2023/10/14 01:50:34;;;;;;;9.43;2.15;;;11.90;99.90;;;;;;5053063;28;20053;-79
2023/10/14 01:53:09;;;;;;;11.43;1.90;;;12.00;99.90;;;;;;5034683;28;20518;-79
2023/10/14 01:55:36;;;;;;;12.98;2.03;;;12.00;99.90;;;;;;5052199;28;20500;-79
2023/10/14 01:58:03;;;;;;;7.93;1.70;;;11.90;99.90;;;;;;5034649;28;20045;-79
2023/10/14 02:00:36;;;;;;;13.35;2.58;;;11.90;99.90;;;;;;5034425;28;20126;-79
2023/10/14 02:03:06;;;;;;;12.80;1.85;;;11.90;99.90;;;;;;5051678;28;20502;-79
2023/10/14 02:05:42;;;;;;;15.32;2.33;;;11.90;99.90;;;;;;5034922;28;20110;-79
2023/10/14 02:08:15;;;;;;;10.13;2.03;;;12.10;99.90;;;;;;5034560;28;20055;-79
2023/10/14 02:10:51;;;;;;;7.47;1.58;;;11.80;99.90;;;;;;5051974;28;20057;-79
2023/10/14 02:13:21;;;;;;;8.20;1.55;;;11.80;99.90;;;;;;5034630;28;20045;-80
2023/10/14 02:15:47;;;;;;;12.18;1.80;;;11.90;99.90;;;;;;5052442;28;20044;-79
2023/10/14 02:18:16;;;;;;;9.73;1.80;;;11.80;99.90;;;;;;5034364;28;20163;-79
2023/10/14 02:20:56;;;;;;;10.65;2.03;;;11.70;99.90;;;;;;5052508;28;20397;-79
2023/10/14 02:23:26;;;;;;;10.48;2.00;;;11.80;99.90;;;;;;5051685;28;20041;-79
2023/10/14 02:26:00;;;;;;;15.40;2.10;;;11.80;99.90;;;;;;5052344;28;20049;-79
2023/10/14 02:28:40;;;;;;;10.80;1.98;;;11.70;99.90;;;;;;5052544;28;20045;-79
2023/10/14 02:31:29;;;;;;;12.88;1.95;;;11.60;99.90;;;;;;5033580;28;20063;-78
2023/10/14 02:34:05;;;;;;;11.40;2.00;;;11.60;99.90;;;;;;5034087;28;20103;-78
2023/10/14 02:36:35;;;;;;;9.80;1.50;;;11.90;99.90;;;;;;5053449;28;20041;-79
2023/10/14 02:39:02;;;;;;;9.05;2.10;;;11.90;99.90;;;;;;5037805;28;20052;-79
2023/10/14 02:41:32;;;;;;;9.32;1.60;;;11.80;99.90;;;;;;5056406;28;20056;-78
2023/10/14 02:46:34;;;;;;;10.15;1.98;;;11.90;99.90;;;;;;5055788;28;20049;-79
2023/10/14 02:49:06;;;;;;;11.32;1.67;;;11.50;99.90;;;;;;5055836;28;20507;-78
2023/10/14 02:54:13;;;;;;;11.35;2.08;;;11.60;99.90;;;;;;5055436;28;20492;-80
2023/10/14 02:59:21;;;;;;;11.40;2.08;;;11.60;99.90;;;;;;5055465;28;20323;-79
2023/10/14 03:07:28;;;;;;;8.05;1.55;;;11.80;99.90;;;;;;5054547;28;20053;-79
2023/10/14 03:09:58;;;;;;;9.85;1.55;;;11.50;99.90;;;;;;5037266;28;20080;-79
2023/10/14 03:12:27;;;;;;;7.88;1.70;;;11.40;99.90;;;;;;5036916;28;20126;-79
2023/10/14 03:14:54;;;;;;;9.10;1.85;;;11.40;99.90;;;;;;5055366;28;20048;-79
2023/10/14 03:17:39;;;;;;;6.82;1.63;;;11.30;99.90;;;;;;5037895;28;20056;-79
2023/10/14 03:20:34;;;;;;;10.13;1.90;;;11.30;99.90;;;;;;5054521;28;20492;-78
2023/10/14 03:22:55;;;;;;;9.32;1.63;;;11.30;99.90;;;;;;5055347;28;20052;-79
2023/10/14 03:25:24;;;;;;;6.85;1.83;;;11.20;99.90;;;;;;5037886;28;20067;-79
2023/10/14 03:28:08;;;;;;;13.95;1.92;;;11.60;99.90;;;;;;5036814;28;20045;-79
2023/10/14 03:30:40;;;;;;;10.80;1.70;;;11.30;99.90;;;;;;5037703;28;20063;-79
2023/10/14 03:33:09;;;;;;;8.82;1.48;;;11.50;99.90;;;;;;5037266;28;20055;-79
2023/10/14 03:35:36;;;;;;;12.88;1.73;;;11.20;99.90;;;;;;5036799;28;20045;-79
2023/10/14 03:38:07;;;;;;;10.32;1.83;;;11.20;99.90;;;;;;5054984;28;20456;-79
2023/10/14 03:40:51;;;;;;;8.77;1.75;;;11.30;99.90;;;;;;5036623;28;20033;-79
2023/10/14 03:43:18;;;;;;;13.05;1.88;;;11.70;99.90;;;;;;5037599;28;20549;-79
2023/10/14 03:46:30;;;;;;;11.85;2.13;;;11.20;99.90;;;;;;5055361;28;20093;-79
2023/10/14 03:48:37;;;;;;;9.88;2.40;;;11.40;99.90;;;;;;5024981;28;20064;-79
2023/10/14 03:51:03;;;;;;;8.65;1.80;;;11.30;99.90;;;;;;5036886;28;20044;-79
2023/10/14 03:53:32;;;;;;;8.77;1.90;;;11.30;99.90;;;;;;5055037;28;20480;-79
2023/10/14 03:56:00;;;;;;;9.30;1.60;;;11.40;99.90;;;;;;5036284;28;20123;-79
2023/10/14 03:58:29;;;;;;;11.30;2.30;;;11.30;99.90;;;;;;5037421;28;20060;-79
2023/10/14 04:00:56;;;;;;;10.05;2.13;;;11.30;99.90;;;;;;5054163;28;20051;-79
2023/10/14 04:06:21;;;;;;;11.95;2.25;;;11.30;99.90;;;;;;5024101;28;20052;-79
2023/10/14 04:08:48;;;;;;;10.60;2.08;;;11.40;99.90;;;;;;5054274;28;20140;-79
2023/10/14 04:11:25;;;;;;;8.18;1.80;;;11.30;99.90;;;;;;5054576;28;20041;-79
2023/10/14 04:16:28;;;;;;;9.35;1.90;;;11.30;99.90;;;;;;5054076;28;20044;-79
2023/10/14 04:19:06;;;;;;;13.02;1.85;;;11.30;99.90;;;;;;5036865;28;20053;-79
2023/10/14 04:21:38;;;;;;;6.65;1.77;;;11.30;99.90;;;;;;5054507;28;20041;-79
2023/10/14 04:26:34;;;;;;;11.80;1.92;;;11.10;99.90;;;;;;5054656;28;20049;-79
2023/10/14 04:29:02;;;;;;;9.85;1.85;;;11.10;99.90;;;;;;5054102;28;20041;-78
2023/10/14 04:31:40;;;;;;;13.48;2.17;;;11.10;99.90;;;;;;5053243;28;20392;-79
2023/10/14 04:34:07;;;;;;;9.57;2.08;;;11.10;99.90;;;;;;5036312;28;20061;-79
2023/10/14 04:36:36;;;;;;;9.18;1.80;;;11.10;99.90;;;;;;5054430;28;20044;-79
2023/10/14 04:39:13;;;;;;;8.85;1.70;;;11.10;99.90;;;;;;5035670;28;20052;-79
2023/10/14 04:41:55;;;;;;;10.05;1.90;;;11.40;99.90;;;;;;5054083;28;20076;-79
2023/10/14 04:44:23;;;;;;;14.85;2.28;;;11.10;99.90;;;;;;5035073;28;20044;-79
2023/10/14 04:47:01;;;;;;;12.32;1.98;;;11.50;99.90;;;;;;5053244;28;20045;-79
2023/10/14 04:49:36;;;;;;;16.98;2.20;;;11.10;99.90;;;;;;5035564;28;20515;-79
2023/10/14 04:52:05;;;;;;;6.95;1.67;;;11.00;99.90;;;;;;5052787;28;20040;-79
2023/10/14 04:54:34;;;;;;;12.48;2.38;;;11.00;99.90;;;;;;5053805;28;20381;-79
2023/10/14 04:57:19;;;;;;;11.02;1.90;;;11.00;99.90;;;;;;5035415;28;20076;-79
2023/10/14 04:59:45;;;;;;;7.45;1.98;;;11.30;99.90;;;;;;5034347;28;20393;-79
2023/10/14 05:02:15;;;;;;;11.85;2.20;;;11.00;99.90;;;;;;5034733;28;20049;-78
2023/10/14 05:04:41;;;;;;;9.07;1.92;;;11.00;99.90;;;;;;5053545;28;20112;-78
2023/10/14 05:07:11;;;;;;;9.02;2.00;;;11.00;99.90;;;;;;5052450;28;20059;-79
2023/10/14 05:09:39;;;;;;;11.57;2.00;;;11.00;99.90;;;;;;5053592;28;20048;-79
2023/10/14 05:12:09;;;;;;;13.55;2.13;;;11.10;99.90;;;;;;5034679;28;20056;-79
2023/10/14 05:14:44;;;;;;;10.43;2.08;;;11.00;99.90;;;;;;5035664;28;20132;-79
2023/10/14 05:19:44;;;;;;;9.30;1.90;;;11.00;99.90;;;;;;5034853;28;20114;-79
2023/10/14 05:22:18;;;;;;;10.18;2.00;;;11.00;99.90;;;;;;5053822;28;20048;-79
2023/10/14 05:24:52;;;;;;;16.63;2.00;;;11.10;99.90;;;;;;5035429;28;20473;-79
2023/10/14 05:27:19;;;;;;;11.02;2.05;;;11.10;99.90;;;;;;5052475;28;20492;-79
2023/10/14 05:29:51;;;;;;;10.02;2.00;;;11.20;99.90;;;;;;5035028;28;20041;-79
2023/10/14 05:32:24;;;;;;;11.82;2.08;;;11.50;99.90;;;;;;5052769;28;20488;-79
2023/10/14 05:34:53;;;;;;;8.80;1.80;;;11.20;99.90;;;;;;5051829;28;20116;-79
2023/10/14 05:37:21;;;;;;;10.32;1.85;;;11.20;99.90;;;;;;5052687;28;20120;-78
2023/10/14 05:39:48;;;;;;;8.05;1.63;;;11.20;99.90;;;;;;5035069;28;20041;-80
2023/10/14 05:42:17;;;;;;;13.70;2.33;;;11.10;99.90;;;;;;5050857;28;20400;-78
2023/10/14 05:44:47;;;;;;;10.52;2.20;;;11.50;99.90;;;;;;5052824;28;20046;-79
2023/10/14 05:47:19;;;;;;;9.95;2.05;;;11.30;99.90;;;;;;5050768;28;20053;-79
2023/10/14 05:49:46;;;;;;;13.57;2.75;;;11.30;99.90;;;;;;5015057;28;20496;-79
2023/10/14 05:52:13;;;;;;;9.82;2.08;;;11.30;99.90;;;;;;5034650;28;20464;-78
2023/10/14 05:54:40;;;;;;;14.20;2.53;;;11.30;99.90;;;;;;5052130;28;20128;-78
2023/10/14 05:57:09;;;;;;;13.85;3.00;;;11.30;99.90;;;;;;5033519;28;20599;-79
2023/10/14 05:59:38;;;;;;;13.23;3.20;;;11.30;99.90;;;;;;5033939;28;20041;-78
2023/10/14 06:02:07;;;;;;;16.45;3.17;;;11.30;99.90;;;;;;5052551;28;20063;-79
2023/10/14 06:04:39;;;;;;;17.85;2.67;;;11.40;99.90;;;;;;5054928;28;20045;-78
2023/10/14 06:07:09;;;;;;;11.38;1.95;;;11.90;99.90;;;;;;5038290;28;20052;-78
2023/10/14 06:09:36;;;;;;;10.38;2.17;;;11.40;99.90;;;;;;5036361;28;20045;-78
2023/10/14 06:12:06;;;;;;;12.15;3.47;;;11.40;99.90;;;;;;5051437;28;20102;-78
2023/10/14 06:14:32;;;;;;;13.55;2.80;;;11.40;99.90;;;;;;5034339;28;20041;-79
2023/10/14 06:17:01;;;;;;;11.63;2.67;;;11.30;99.90;;;;;;5031080;28;20084;-79
2023/10/14 06:19:26;;;;;;;10.90;2.78;;;11.30;99.90;;;;;;5054006;28;20051;-77
2023/10/14 06:21:52;;;;;;;13.95;3.13;;;11.30;99.90;;;;;;5051438;28;20033;-78
2023/10/14 06:24:18;;;;;;;16.67;2.38;;;11.70;99.90;;;;;;5053975;28;20484;-84
2023/10/14 06:26:44;;;;;;;13.52;2.50;;;11.30;99.90;;;;;;5059301;28;20044;-79
2023/10/14 06:29:10;;;;;;;10.15;2.20;;;11.20;99.90;;;;;;5059600;28;20116;-82
2023/10/14 06:31:37;;;;;;;8.98;1.98;;;11.20;99.90;;;;;;5040974;28;20097;-84
2023/10/14 06:34:08;;;;;;;8.98;2.15;;;11.20;99.90;;;;;;5046032;28;20500;-77
2023/10/14 06:36:35;;;;;;;8.93;1.88;;;11.10;99.90;;;;;;5055675;28;20048;-73
2023/10/14 06:39:13;;;;;;;10.07;2.33;;;11.40;99.90;;;;;;5055732;28;20041;-78
2023/10/14 06:41:43;;;;;;;11.25;2.00;;;11.20;99.90;;;;;;5043639;28;20053;-79
2023/10/14 06:44:14;;;;;;;9.55;2.00;;;11.10;99.90;;;;;;5046934;28;20087;-80
2023/10/14 06:46:44;;;;;;;11.98;2.15;;;11.40;99.90;;;;;;5060428;28;20485;-80
2023/10/14 06:49:14;;;;;;;12.27;2.00;;;12.20;99.90;;;;;;5044904;28;20048;-76
2023/10/14 06:51:46;;;;;;;12.70;2.53;;;11.60;99.90;;;;;;5058351;28;20073;-78
2023/10/14 06:54:14;;;;;;;11.07;1.83;;;12.00;99.90;;;;;;5037620;28;20063;-74
2023/10/14 06:56:40;;;;;;;11.43;2.55;;;11.80;99.90;;;;;;5030748;28;20408;-81
2023/10/14 06:59:06;;;;;;;12.63;1.92;;;11.70;99.90;;;;;;5029219;28;20041;-87
2023/10/14 07:01:35;;;;;;;9.45;1.90;;;11.80;99.90;;;;;;5058411;28;20127;-81
2023/10/14 07:04:04;;;;;;;8.73;1.73;;;11.90;99.90;;;;;;5056208;28;20119;-82
2023/10/14 07:06:29;;;;;;;9.57;1.75;;;11.90;99.90;;;;;;5052547;28;20485;-80
2023/10/14 07:08:55;;;;;;;12.68;1.77;;;12.00;99.90;;;;;;5033745;28;20123;-76
2023/10/14 07:11:21;;;;;;;10.40;1.63;;;12.30;99.90;;;;;;5034098;28;20041;-74
2023/10/14 07:13:47;;;;;;;11.65;2.35;;;12.20;99.90;;;;;;5049404;28;20048;-81
2023/10/14 07:16:13;;;;;;;7.65;1.95;;;12.40;99.90;;;;;;5060244;28;20511;-81
2023/10/14 07:18:40;;;;;;;9.32;1.92;;;12.50;99.90;;;;;;5060368;28;20037;-82
2023/10/14 07:21:12;;;;;;;15.43;2.03;;;12.20;99.90;;;;;;5044885;28;20045;-82
2023/10/14 07:23:38;;;;;;;12.25;2.38;;;12.10;99.90;;;;;;5056673;28;20069;-76
2023/10/14 07:26:13;;;;;;;11.75;2.67;;;12.20;99.90;;;;;;5034193;28;20063;-82
2023/10/14 07:28:43;;;;;;;8.10;1.80;;;12.90;99.90;;;;;;5036338;28;20059;-82
2023/10/14 07:31:10;;;;;;;10.60;1.90;;;12.20;99.90;;;;;;5054544;28;20492;-77
2023/10/14 07:33:37;;;;;;;12.30;1.65;;;12.50;99.90;;;;;;5035513;28;20045;-81
2023/10/14 07:36:06;;;;;;;7.82;1.80;;;12.30;99.90;;;;;;5029728;28;20045;-79
2023/10/14 07:38:36;;;;;;;7.40;1.73;;;12.30;99.90;;;;;;5036944;28;20476;-80
2023/10/14 07:41:03;;;;;;;9.25;1.65;;;12.30;99.90;;;;;;5035650;28;20064;-80
2023/10/14 07:43:28;;;;;;;9.65;2.20;;;12.40;99.90;;;;;;5037257;28;20554;-87
2023/10/14 07:45:54;;;;;;;11.98;2.15;;;13.00;99.90;;;;;;5034068;28;20041;-79
2023/10/14 07:48:20;;;;;;;7.07;1.52;;;12.80;99.90;;;;;;5033251;28;20057;-80
2023/10/14 07:50:47;;;;;;;6.38;1.23;;;13.60;99.90;;;;;;5048133;28;20042;-84
2023/10/14 07:53:14;;;;;;;7.40;1.58;;;14.60;99.90;;;;;;5045035;28;20044;-84
2023/10/14 07:55:47;;;;;;;7.43;1.42;;;15.70;99.90;;;;;;5053859;28;20066;-84
2023/10/14 07:58:14;;;;;;;9.15;1.90;;;16.90;99.90;;;;;;5054962;28;20060;-84
2023/10/14 08:00:50;;;;;;;7.78;1.60;;;17.80;99.90;;;;;;5037185;28;20044;-84
2023/10/14 08:03:17;;;;;;;8.90;2.00;;;18.70;98.30;;;;;;5053754;28;20049;-84
2023/10/14 08:05:54;;;;;;;7.20;1.88;;;19.30;96.60;;;;;;5036609;28;20055;-83
2023/10/14 08:08:21;;;;;;;9.13;1.63;;;19.90;95.50;;;;;;5033920;28;20053;-84
2023/10/14 08:10:51;;;;;;;8.15;1.70;;;19.00;95.50;;;;;;5052404;28;20045;-84
2023/10/14 08:13:23;;;;;;;9.90;2.08;;;17.80;96.80;;;;;;5034356;28;20057;-81
2023/10/14 08:15:53;;;;;;;11.60;1.80;;;16.80;98.70;;;;;;5051855;28;20044;-82
2023/10/14 08:18:23;;;;;;;13.15;2.00;;;16.30;99.90;;;;;;5034662;28;20049;-83
2023/10/14 08:20:53;;;;;;;12.18;2.60;;;16.80;99.90;;;;;;5052091;28;20048;-83
2023/10/14 08:23:22;;;;;;;7.25;1.55;;;17.90;99.90;;;;;;5035506;28;20037;-83
2023/10/14 08:25:54;;;;;;;11.48;1.73;;;18.90;98.60;;;;;;5036114;28;20561;-83
2023/10/14 08:28:24;;;;;;;9.77;1.85;;;19.60;98.00;;;;;;5036912;28;20044;-83
2023/10/14 08:30:50;;;;;;;8.13;1.75;;;20.30;96.20;;;;;;5053653;28;20091;-84
2023/10/14 08:33:24;;;;;;;9.77;1.75;;;20.90;95.20;;;;;;5054212;28;20052;-83
2023/10/14 08:35:51;;;;;;;8.02;1.80;;;20.40;95.20;;;;;;5035314;28;20155;-82
2023/10/14 08:38:27;;;;;;;11.05;2.08;;;20.50;96.00;;;;;;5054126;28;20044;-83
2023/10/14 08:40:54;;;;;;;7.78;2.20;;;20.60;95.70;;;;;;5054250;28;20037;-83
2023/10/14 08:43:28;;;;;;;9.60;2.83;;;19.90;96.30;;;;;;5053490;28;20465;-83
2023/10/14 08:45:54;;;;;;;7.75;2.20;;;19.70;97.10;;;;;;5053861;28;20049;-83
2023/10/14 08:48:23;;;;;;;8.98;1.98;;;20.20;95.50;;;;;;5036232;28;20127;-82
2023/10/14 08:50:56;;;;;;;10.50;1.88;;;21.10;94.70;;;;;;5035173;28;20127;-83
2023/10/14 08:53:24;;;;;;;6.13;1.38;;;21.60;91.60;;;;;;5035269;28;20053;-83
2023/10/14 08:55:52;;;;;;;9.88;2.38;;;22.20;91.20;;;;;;5053661;28;20455;-84
2023/10/14 08:58:22;;;;;;;6.78;1.88;;;22.50;90.70;;;;;;5035113;28;20107;-84
2023/10/14 09:00:50;;;;;;;7.65;1.75;;;22.40;91.40;;;;;;5035794;28;20057;-84
2023/10/14 09:03:16;;;;;;;7.70;1.73;;;22.40;91.80;;;;;;5035585;28;20498;-83
2023/10/14 09:05:46;;;;;;;5.60;1.45;;;22.90;90.40;;;;;;5053049;28;20045;-84
2023/10/14 09:08:14;;;;;;;9.45;2.10;;;23.40;89.10;;;;;;5035514;28;20052;-84
2023/10/14 09:10:44;;;;;;;8.48;1.60;;;23.70;88.40;;;;;;5053629;28;20044;-83
2023/10/14 09:13:19;;;;;;;6.40;1.52;;;23.90;88.90;;;;;;5051782;28;20098;-84
2023/10/14 09:15:45;;;;;;;6.22;1.50;;;23.70;87.50;;;;;;5035976;28;20041;-84
2023/10/14 09:18:17;;;;;;;8.38;1.48;;;24.00;85.20;;;;;;5034736;28;20045;-83
2023/10/14 09:20:44;;;;;;;9.60;1.58;;;22.70;87.50;;;;;;5035319;28;20045;-82
2023/10/14 09:23:40;;;;;;;8.95;1.80;;;20.80;91.60;;;;;;5034626;28;20045;-82
2023/10/14 09:26:06;;;;;;;6.13;1.35;;;18.70;94.30;;;;;;5034374;28;20563;-81
2023/10/14 09:28:40;;;;;;;4.55;1.20;;;17.20;95.60;;;;;;5035637;28;20056;-82
2023/10/14 09:31:08;;;;;;;3.75;1.00;;;16.40;97.20;;;;;;5035520;28;20056;-82
2023/10/14 09:33:43;;;;;;;3.85;0.93;;;15.90;97.80;;;;;;5034381;28;20090;-84
2023/10/14 09:36:11;;;;;;;3.60;1.00;;;16.40;98.60;;;;;;5035030;28;20044;-86
2023/10/14 09:38:39;;;;;;;4.68;1.20;;;18.00;96.30;;;;;;5052995;28;20037;-86
2023/10/14 09:41:07;;;;;;;4.80;1.00;;;19.50;94.60;;;;;;5052265;28;20435;-87
2023/10/14 09:43:46;;;;;;;4.95;1.23;;;20.40;93.70;;;;;;5052932;28;20400;-84
2023/10/14 09:46:15;;;;;;;6.75;1.20;;;21.30;93.40;;;;;;5033037;28;20152;-84
2023/10/14 09:48:43;;;;;;;6.57;1.30;;;22.10;92.00;;;;;;5052687;28;20060;-84
2023/10/14 09:51:12;;;;;;;6.80;1.40;;;22.40;90.90;;;;;;5052705;28;20095;-84
2023/10/14 09:53:38;;;;;;;7.60;1.75;;;22.20;91.00;;;;;;5051570;28;20550;-84
2023/10/14 09:56:12;;;;;;;11.13;2.05;;;21.50;91.90;;;;;;5034862;28;20540;-85
2023/10/14 09:58:43;;;;;;;6.03;1.70;;;22.40;92.00;;;;;;5035172;28;20056;-84
2023/10/14 10:01:16;;;;;;;8.43;1.67;;;23.30;91.40;;;;;;5034015;28;20053;-85
2023/10/14 10:03:59;;;;;;;7.07;1.85;;;23.80;90.80;;;;;;5052290;28;20558;-84
2023/10/14 10:07:04;;;;;;;6.72;1.40;;;23.80;91.00;;;;;;5034735;28;20045;-83
2023/10/14 10:10:10;;;;;;;6.38;1.48;;;23.40;86.00;;;;;;5051737;28;20090;-84
2023/10/14 10:12:37;;;;;;;9.13;1.92;;;23.70;86.60;;;;;;5034082;28;20051;-82
2023/10/14 10:15:06;;;;;;;7.60;2.05;;;23.60;88.70;;;;;;5034490;28;20396;-86
2023/10/14 10:17:37;;;;;;;8.02;1.67;;;22.90;86.20;;;;;;5034357;28;20049;-91
2023/10/14 10:20:09;;;;;;;9.38;1.90;;;22.10;87.30;;;;;;5034928;28;20053;-91
2023/10/14 10:22:56;;;;;;;6.35;1.77;;;21.60;90.10;;;;;;5033710;28;20060;-89
2023/10/14 10:25:52;;;;;;;7.82;1.80;;;22.30;90.00;;;;;;5052071;28;20045;-88
2023/10/14 10:28:26;;;;;;;9.30;1.83;;;22.30;87.70;;;;;;5034575;28;20106;-85
2023/10/14 10:30:53;;;;;;;11.00;2.28;;;21.30;86.90;;;;;;5034593;28;20081;-83
2023/10/14 10:33:18;;;;;;;7.57;1.77;;;20.10;89.50;;;;;;5036840;28;20483;-77
2023/10/14 10:35:57;;;;;;;9.02;1.90;;;19.30;90.80;;;;;;5034834;28;20049;-78
2023/10/14 10:38:23;;;;;;;10.02;1.98;;;18.60;91.60;;;;;;5052166;28;20041;-85
2023/10/14 10:41:24;;;;;;;8.85;2.10;;;17.90;92.70;;;;;;5054985;28;20485;-82
2023/10/14 10:43:52;;;;;;;7.80;2.00;;;17.50;93.60;;;;;;5032816;28;20053;-75
2023/10/14 10:46:28;;;;;;;9.38;2.70;;;17.20;93.90;;;;;;5034550;28;20045;-75
2023/10/14 10:48:54;;;;;;;11.75;2.80;;;16.70;94.90;;;;;;5030557;28;20136;-81
2023/10/14 10:51:21;;;;;;;23.30;6.18;;;16.10;95.90;;;;;;5033058;28;20147;-87
2023/10/14 10:53:49;;;;;;;9.32;2.50;;;15.60;96.60;;;;;;5033695;28;20084;-78
2023/10/14 10:56:19;;;;;;;10.02;2.85;;;15.20;97.10;;;;;;5052145;28;20095;-81
2023/10/14 10:58:45;;;;;;;9.40;1.95;;;15.10;97.80;;;;;;5054182;28;20510;-79
2023/10/14 11:01:12;;;;;;;14.68;2.15;;;15.20;98.00;;;;;;5037784;28;20079;-78
2023/10/14 11:03:38;;;;;;;7.57;2.00;;;16.40;97.50;;;;;;5036961;28;20106;-77
2023/10/14 11:06:04;;;;;;;7.53;1.67;;;18.00;96.80;;;;;;5038194;28;20049;-77
2023/10/14 11:08:30;;;;;;;9.63;2.00;;;19.60;94.30;;;;;;5038232;28;20068;-79
2023/10/14 11:10:57;;;;;;;9.95;1.95;;;20.50;92.10;;;;;;5036907;28;20400;-79
2023/10/14 11:13:26;;;;;;;9.80;2.35;;;21.60;89.90;;;;;;5054922;28;20045;-80
2023/10/14 11:15:51;;;;;;;9.45;1.80;;;21.90;87.60;;;;;;5035584;28;20123;-80
2023/10/14 11:18:20;;;;;;;9.95;2.40;;;22.30;86.60;;;;;;5052786;28;20523;-78
2023/10/14 11:20:47;;;;;;;10.50;2.70;;;22.70;84.30;;;;;;5053662;28;20045;-78
2023/10/14 11:23:13;;;;;;;9.15;1.98;;;23.20;84.30;;;;;;5035875;28;20053;-78
2023/10/14 11:25:42;;;;;;;8.25;2.20;;;23.10;85.00;;;;;;5035300;28;20115;-77
2023/10/14 11:28:10;;;;;;;10.25;1.70;;;22.90;82.80;;;;;;5035801;28;20090;-79
2023/10/14 11:30:47;;;;;;;11.07;2.30;;;22.40;85.00;;;;;;5036983;28;20048;-79
2023/10/14 11:33:16;;;;;;;8.00;1.90;;;22.40;85.20;;;;;;5053724;28;20060;-78
2023/10/14 11:35:42;;;;;;;8.77;1.95;;;22.40;83.30;;;;;;5054416;28;20392;-79
2023/10/14 11:38:18;;;;;;;10.35;2.15;;;22.90;82.90;;;;;;5036728;28;20143;-80
2023/10/14 11:40:47;;;;;;;9.13;1.95;;;23.00;81.30;;;;;;5036619;28;20389;-81
2023/10/14 11:43:12;;;;;;;10.35;2.03;;;22.90;81.00;;;;;;5036972;28;20122;-90
2023/10/14 11:45:45;;;;;;;5.03;1.83;;;22.90;81.40;;;;;;5037621;28;20041;-81
2023/10/14 11:48:25;;;;;;;9.57;1.92;;;23.00;81.10;;;;;;5054520;28;20119;-82
2023/10/14 11:51:01;;;;;;;6.82;2.10;;;22.80;79.80;;;;;;5036844;28;20458;-81
2023/10/14 11:53:33;;;;;;;6.25;1.70;;;23.00;79.80;;;;;;5054309;28;20132;-78
2023/10/14 11:56:01;;;;;;;7.65;1.63;;;23.30;80.90;;;;;;5054417;28;20037;-79
2023/10/14 11:58:37;;;;;;;4.05;1.45;;;23.20;79.50;;;;;;5037052;28;20465;-79
2023/10/14 12:01:04;;;;;;;8.13;2.25;;;22.50;80.70;;;;;;5034996;28;20503;-79
2023/10/14 12:03:29;;;;;;;8.77;1.75;;;22.40;81.10;;;;;;5035281;28;20051;-80
2023/10/14 12:05:59;;;;;;;8.38;1.73;;;22.20;82.10;;;;;;5053871;28;20041;-80
2023/10/14 12:08:33;;;;;;;10.48;2.10;;;22.50;82.60;;;;;;5034591;28;20053;-80
2023/10/14 12:10:59;;;;;;;9.20;1.50;;;22.30;82.20;;;;;;5034952;28;20045;-79
2023/10/14 12:13:26;;;;;;;7.32;1.90;;;22.40;82.30;;;;;;5054497;28;20100;-79
2023/10/14 12:15:52;;;;;;;6.95;2.00;;;22.70;82.20;;;;;;5034648;28;20409;-84
2023/10/14 12:18:20;;;;;;;7.82;2.00;;;22.50;83.40;;;;;;5054297;28;20048;-83
2023/10/14 12:20:47;;;;;;;8.35;1.83;;;22.80;85.60;;;;;;5036747;28;20064;-77
2023/10/14 12:23:13;;;;;;;8.98;2.22;;;22.90;87.40;;;;;;5053012;28;20133;-83
2023/10/14 12:25:39;;;;;;;9.18;2.90;;;23.10;86.00;;;;;;5053555;28;20045;-83
2023/10/14 12:28:05;;;;;;;10.18;2.72;;;23.30;83.80;;;;;;5034885;28;20055;-83
2023/10/14 12:30:41;;;;;;;8.63;2.50;;;23.20;83.70;;;;;;5036181;28;20045;-83
2023/10/14 12:33:07;;;;;;;8.48;2.28;;;23.10;85.50;;;;;;5053161;28;20049;-82
2023/10/14 12:35:40;;;;;;;7.55;1.92;;;23.50;85.40;;;;;;5033328;28;20049;-82
2023/10/14 12:38:11;;;;;;;6.57;2.30;;;22.20;84.60;;;;;;5033353;28;20098;-82
2023/10/14 12:40:43;;;;;;;7.95;2.17;;;21.60;85.20;;;;;;5033572;28;20049;-82
2023/10/14 12:43:15;;;;;;;16.58;3.05;;;20.50;84.10;;;;;;5032732;28;20436;-81
2023/10/14 12:45:42;;;;;;;9.98;2.80;;;19.50;85.20;;;;;;5033945;28;20049;-81
2023/10/14 12:48:10;;;;;;;9.80;2.35;;;19.80;86.00;;;;;;5051461;28;20144;-82
2023/10/14 12:50:46;;;;;;;6.65;3.08;;;20.00;85.30;;;;;;5033200;28;20063;-82
2023/10/14 12:53:12;;;;;;;8.27;1.90;;;20.40;86.80;;;;;;5051341;28;20083;-81
2023/10/14 12:55:44;;;;;;;8.57;1.98;;;20.40;82.40;;;;;;5050936;28;20037;-80
2023/10/14 12:58:12;;;;;;;7.60;1.63;;;20.50;82.90;;;;;;5051677;28;20170;-81
2023/10/14 13:00:38;;;;;;;6.57;1.88;;;20.10;82.60;;;;;;5035740;28;20048;-80
2023/10/14 13:03:09;;;;;;;10.05;1.73;;;19.50;83.30;;;;;;5035610;28;20064;-80
2023/10/14 13:05:36;;;;;;;7.95;2.08;;;19.40;84.90;;;;;;5053569;28;20037;-79
2023/10/14 13:08:02;;;;;;;7.40;1.60;;;19.20;87.10;;;;;;5035639;28;20053;-83
2023/10/14 13:10:28;;;;;;;9.73;1.83;;;19.10;87.20;;;;;;5034978;28;20834;-81
2023/10/14 13:12:58;;;;;;;8.30;2.38;;;18.60;88.60;;;;;;5035201;28;20127;-83
2023/10/14 13:15:30;;;;;;;14.13;2.40;;;18.10;89.50;;;;;;5053566;28;20118;-83
2023/10/14 13:18:00;;;;;;;8.88;2.50;;;17.60;90.50;;;;;;5033985;28;20056;-84
2023/10/14 13:20:27;;;;;;;10.23;2.50;;;17.10;89.60;;;;;;5052462;28;20052;-83
2023/10/14 13:23:07;;;;;;;9.60;2.30;;;16.30;90.90;;;;;;5052866;28;20045;-83
2023/10/14 13:25:37;;;;;;;11.15;2.17;;;16.00;92.30;;;;;;5052677;28;20128;-83
2023/10/14 13:28:08;;;;;;;11.55;2.05;;;15.80;93.10;;;;;;5035423;28;20048;-84
2023/10/14 13:30:35;;;;;;;7.90;1.77;;;15.60;94.30;;;;;;5035839;28;20053;-85
2023/10/14 13:33:00;;;;;;;7.90;2.00;;;15.80;94.20;;;;;;5034355;28;20085;-86